sensor_id;sensor_type;location;lat;lon;timestamp;P1;durP1;ratioP1;P2;durP2;ratioP2
69750;SDS011;57335;52.288;6.056;2022-11-15T00:00:51;29.70;;;11.75;;
69750;SDS011;57335;52.288;6.056;2022-11-15T00:03:19;32.00;;;12.35;;
69750;SDS011;57335;52.288;6.056;2022-11-15T00:05:47;28.60;;;12.13;;
69750;SDS011;57335;52.288;6.056;2022-11-15T00:08:14;32.63;;;11.88;;
69750;SDS011;57335;52.288;6.056;2022-11-15T00:10:41;33.20;;;12.38;;
69750;SDS011;57335;52.288;6.056;2022-11-15T00:13:08;31.20;;;11.65;;
69750;SDS011;57335;52.288;6.056;2022-11-15T00:15:38;32.00;;;11.93;;
69750;SDS011;57335;52.288;6.056;2022-11-15T00:18:06;29.85;;;11.80;;
69750;SDS011;57335;52.288;6.056;2022-11-15T00:20:38;29.10;;;12.07;;
69750;SDS011;57335;52.288;6.056;2022-11-15T00:23:04;32.55;;;12.10;;
69750;SDS011;57335;52.288;6.056;2022-11-15T00:25:31;32.92;;;12.20;;
69750;SDS011;57335;52.288;6.056;2022-11-15T00:27:59;33.03;;;13.15;;
69750;SDS011;57335;52.288;6.056;2022-11-15T00:30:26;42.90;;;14.40;;
69750;SDS011;57335;52.288;6.056;2022-11-15T00:32:53;37.38;;;13.98;;
69750;SDS011;57335;52.288;6.056;2022-11-15T00:35:19;38.72;;;12.18;;
69750;SDS011;57335;52.288;6.056;2022-11-15T00:37:46;38.35;;;13.68;;
69750;SDS011;57335;52.288;6.056;2022-11-15T00:40:13;41.47;;;13.73;;
69750;SDS011;57335;52.288;6.056;2022-11-15T00:42:41;35.15;;;13.38;;
69750;SDS011;57335;52.288;6.056;2022-11-15T00:45:07;36.13;;;13.10;;
69750;SDS011;57335;52.288;6.056;2022-11-15T00:47:35;39.67;;;13.85;;
69750;SDS011;57335;52.288;6.056;2022-11-15T00:50:01;43.50;;;13.23;;
69750;SDS011;57335;52.288;6.056;2022-11-15T00:52:28;41.58;;;13.75;;
69750;SDS011;57335;52.288;6.056;2022-11-15T00:54:54;43.00;;;15.00;;
69750;SDS011;57335;52.288;6.056;2022-11-15T00:59:47;39.42;;;13.98;;
69750;SDS011;57335;52.288;6.056;2022-11-15T01:02:13;37.92;;;14.40;;
69750;SDS011;57335;52.288;6.056;2022-11-15T01:04:40;41.40;;;13.85;;
69750;SDS011;57335;52.288;6.056;2022-11-15T01:07:06;39.05;;;13.65;;
69750;SDS011;57335;52.288;6.056;2022-11-15T01:09:33;37.55;;;13.55;;
69750;SDS011;57335;52.288;6.056;2022-11-15T01:11:59;43.80;;;15.55;;
69750;SDS011;57335;52.288;6.056;2022-11-15T01:14:25;44.55;;;14.05;;
69750;SDS011;57335;52.288;6.056;2022-11-15T01:16:52;43.20;;;14.60;;
69750;SDS011;57335;52.288;6.056;2022-11-15T01:19:18;42.50;;;14.82;;
69750;SDS011;57335;52.288;6.056;2022-11-15T01:21:44;46.90;;;15.88;;
69750;SDS011;57335;52.288;6.056;2022-11-15T01:24:11;49.75;;;14.88;;
69750;SDS011;57335;52.288;6.056;2022-11-15T01:26:38;48.05;;;16.13;;
69750;SDS011;57335;52.288;6.056;2022-11-15T01:29:05;50.60;;;15.55;;
69750;SDS011;57335;52.288;6.056;2022-11-15T01:31:31;45.13;;;16.38;;
69750;SDS011;57335;52.288;6.056;2022-11-15T01:33:58;52.92;;;16.85;;
69750;SDS011;57335;52.288;6.056;2022-11-15T01:36:24;49.90;;;15.40;;
69750;SDS011;57335;52.288;6.056;2022-11-15T01:38:54;47.78;;;15.48;;
69750;SDS011;57335;52.288;6.056;2022-11-15T01:41:26;51.17;;;16.35;;
69750;SDS011;57335;52.288;6.056;2022-11-15T01:43:55;52.60;;;16.88;;
69750;SDS011;57335;52.288;6.056;2022-11-15T01:46:33;52.47;;;17.13;;
69750;SDS011;57335;52.288;6.056;2022-11-15T01:49:02;44.05;;;15.80;;
69750;SDS011;57335;52.288;6.056;2022-11-15T01:51:37;51.70;;;16.77;;
69750;SDS011;57335;52.288;6.056;2022-11-15T01:54:05;50.58;;;17.85;;
69750;SDS011;57335;52.288;6.056;2022-11-15T01:56:41;47.72;;;17.05;;
69750;SDS011;57335;52.288;6.056;2022-11-15T01:59:15;49.08;;;16.05;;
69750;SDS011;57335;52.288;6.056;2022-11-15T02:01:41;59.75;;;17.20;;
69750;SDS011;57335;52.288;6.056;2022-11-15T02:04:11;58.63;;;18.38;;
69750;SDS011;57335;52.288;6.056;2022-11-15T02:06:41;53.95;;;17.85;;
69750;SDS011;57335;52.288;6.056;2022-11-15T02:09:09;49.90;;;17.17;;
69750;SDS011;57335;52.288;6.056;2022-11-15T02:11:36;51.78;;;17.55;;
69750;SDS011;57335;52.288;6.056;2022-11-15T02:14:02;48.10;;;16.85;;
69750;SDS011;57335;52.288;6.056;2022-11-15T02:25:03;56.63;;;17.52;;
69750;SDS011;57335;52.288;6.056;2022-11-15T02:28:16;50.15;;;15.90;;
69750;SDS011;57335;52.288;6.056;2022-11-15T02:31:14;54.97;;;16.60;;
69750;SDS011;57335;52.288;6.056;2022-11-15T02:36:40;50.35;;;16.38;;
69750;SDS011;57335;52.288;6.056;2022-11-15T02:39:14;49.40;;;16.55;;
69750;SDS011;57335;52.288;6.056;2022-11-15T02:42:02;47.03;;;16.55;;
69750;SDS011;57335;52.288;6.056;2022-11-15T02:44:35;45.67;;;16.20;;
69750;SDS011;57335;52.288;6.056;2022-11-15T02:47:06;48.50;;;16.25;;
69750;SDS011;57335;52.288;6.056;2022-11-15T02:49:37;50.42;;;17.30;;
69750;SDS011;57335;52.288;6.056;2022-11-15T02:52:15;49.38;;;17.60;;
69750;SDS011;57335;52.288;6.056;2022-11-15T02:54:42;54.88;;;17.58;;
69750;SDS011;57335;52.288;6.056;2022-11-15T02:57:18;50.28;;;16.88;;
69750;SDS011;57335;52.288;6.056;2022-11-15T03:13:30;49.92;;;17.85;;
69750;SDS011;57335;52.288;6.056;2022-11-15T03:16:04;60.88;;;18.98;;
69750;SDS011;57335;52.288;6.056;2022-11-15T03:18:50;50.40;;;17.90;;
69750;SDS011;57335;52.288;6.056;2022-11-15T03:21:27;48.72;;;17.05;;
69750;SDS011;57335;52.288;6.056;2022-11-15T03:23:55;51.60;;;16.90;;
69750;SDS011;57335;52.288;6.056;2022-11-15T03:26:27;51.40;;;18.90;;
69750;SDS011;57335;52.288;6.056;2022-11-15T03:28:59;53.10;;;18.00;;
69750;SDS011;57335;52.288;6.056;2022-11-15T03:31:31;50.90;;;18.08;;
69750;SDS011;57335;52.288;6.056;2022-11-15T03:34:01;49.15;;;16.60;;
69750;SDS011;57335;52.288;6.056;2022-11-15T03:36:31;42.45;;;17.33;;
69750;SDS011;57335;52.288;6.056;2022-11-15T03:39:01;43.60;;;16.13;;
69750;SDS011;57335;52.288;6.056;2022-11-15T03:41:35;41.92;;;17.25;;
69750;SDS011;57335;52.288;6.056;2022-11-15T03:44:20;41.78;;;16.60;;
69750;SDS011;57335;52.288;6.056;2022-11-15T03:46:52;39.55;;;15.63;;
69750;SDS011;57335;52.288;6.056;2022-11-15T03:49:29;40.72;;;15.70;;
69750;SDS011;57335;52.288;6.056;2022-11-15T03:51:58;36.75;;;15.32;;
69750;SDS011;57335;52.288;6.056;2022-11-15T03:54:26;38.33;;;15.18;;
69750;SDS011;57335;52.288;6.056;2022-11-15T03:56:52;40.28;;;16.35;;
69750;SDS011;57335;52.288;6.056;2022-11-15T03:59:19;37.13;;;14.80;;
69750;SDS011;57335;52.288;6.056;2022-11-15T04:01:45;38.47;;;14.88;;
69750;SDS011;57335;52.288;6.056;2022-11-15T04:04:11;32.70;;;14.18;;
69750;SDS011;57335;52.288;6.056;2022-11-15T04:06:38;36.25;;;14.13;;
69750;SDS011;57335;52.288;6.056;2022-11-15T04:09:04;38.28;;;14.52;;
69750;SDS011;57335;52.288;6.056;2022-11-15T04:11:31;34.30;;;14.38;;
69750;SDS011;57335;52.288;6.056;2022-11-15T04:13:57;43.80;;;15.40;;
69750;SDS011;57335;52.288;6.056;2022-11-15T04:16:23;31.50;;;14.05;;
69750;SDS011;57335;52.288;6.056;2022-11-15T04:18:50;35.25;;;14.85;;
69750;SDS011;57335;52.288;6.056;2022-11-15T04:21:16;39.60;;;15.90;;
69750;SDS011;57335;52.288;6.056;2022-11-15T04:23:43;33.50;;;13.90;;
69750;SDS011;57335;52.288;6.056;2022-11-15T04:26:13;33.80;;;14.20;;
69750;SDS011;57335;52.288;6.056;2022-11-15T04:28:42;36.95;;;15.35;;
69750;SDS011;57335;52.288;6.056;2022-11-15T04:31:08;39.30;;;14.60;;
69750;SDS011;57335;52.288;6.056;2022-11-15T04:33:34;37.15;;;15.23;;
69750;SDS011;57335;52.288;6.056;2022-11-15T04:36:01;36.15;;;15.27;;
69750;SDS011;57335;52.288;6.056;2022-11-15T04:38:27;41.05;;;16.33;;
69750;SDS011;57335;52.288;6.056;2022-11-15T04:40:53;38.65;;;15.00;;
69750;SDS011;57335;52.288;6.056;2022-11-15T04:43:20;40.22;;;14.55;;
69750;SDS011;57335;52.288;6.056;2022-11-15T04:45:46;37.20;;;14.35;;
69750;SDS011;57335;52.288;6.056;2022-11-15T04:48:12;33.17;;;15.07;;
69750;SDS011;57335;52.288;6.056;2022-11-15T04:50:39;33.38;;;13.93;;
69750;SDS011;57335;52.288;6.056;2022-11-15T04:53:05;40.63;;;15.65;;
69750;SDS011;57335;52.288;6.056;2022-11-15T04:55:31;34.13;;;13.57;;
69750;SDS011;57335;52.288;6.056;2022-11-15T04:57:58;44.05;;;15.50;;
69750;SDS011;57335;52.288;6.056;2022-11-15T05:00:26;39.42;;;14.77;;
69750;SDS011;57335;52.288;6.056;2022-11-15T05:02:53;35.65;;;14.95;;
69750;SDS011;57335;52.288;6.056;2022-11-15T05:05:19;42.13;;;16.25;;
69750;SDS011;57335;52.288;6.056;2022-11-15T05:07:46;38.45;;;15.80;;
69750;SDS011;57335;52.288;6.056;2022-11-15T05:10:12;40.88;;;16.15;;
69750;SDS011;57335;52.288;6.056;2022-11-15T05:12:39;41.05;;;16.60;;
69750;SDS011;57335;52.288;6.056;2022-11-15T05:15:05;36.63;;;13.82;;
69750;SDS011;57335;52.288;6.056;2022-11-15T05:17:32;38.63;;;14.30;;
69750;SDS011;57335;52.288;6.056;2022-11-15T05:19:58;39.88;;;16.15;;
69750;SDS011;57335;52.288;6.056;2022-11-15T05:22:25;40.50;;;15.38;;
69750;SDS011;57335;52.288;6.056;2022-11-15T05:24:52;38.60;;;15.43;;
69750;SDS011;57335;52.288;6.056;2022-11-15T05:27:18;42.58;;;15.02;;
69750;SDS011;57335;52.288;6.056;2022-11-15T05:29:44;39.38;;;15.15;;
69750;SDS011;57335;52.288;6.056;2022-11-15T05:32:11;36.92;;;14.15;;
69750;SDS011;57335;52.288;6.056;2022-11-15T05:34:38;39.25;;;14.80;;
69750;SDS011;57335;52.288;6.056;2022-11-15T05:37:04;39.58;;;15.02;;
69750;SDS011;57335;52.288;6.056;2022-11-15T05:39:31;39.58;;;15.27;;
69750;SDS011;57335;52.288;6.056;2022-11-15T05:42:00;35.90;;;15.02;;
69750;SDS011;57335;52.288;6.056;2022-11-15T05:44:32;35.38;;;14.85;;
69750;SDS011;57335;52.288;6.056;2022-11-15T05:47:00;42.30;;;15.50;;
69750;SDS011;57335;52.288;6.056;2022-11-15T05:49:29;40.72;;;14.73;;
69750;SDS011;57335;52.288;6.056;2022-11-15T05:51:59;35.70;;;15.02;;
69750;SDS011;57335;52.288;6.056;2022-11-15T05:54:26;37.85;;;14.95;;
69750;SDS011;57335;52.288;6.056;2022-11-15T05:56:53;37.90;;;15.52;;
69750;SDS011;57335;52.288;6.056;2022-11-15T05:59:19;36.97;;;14.80;;
69750;SDS011;57335;52.288;6.056;2022-11-15T06:01:46;38.90;;;14.95;;
69750;SDS011;57335;52.288;6.056;2022-11-15T06:04:12;40.05;;;14.70;;
69750;SDS011;57335;52.288;6.056;2022-11-15T06:06:39;36.13;;;14.68;;
69750;SDS011;57335;52.288;6.056;2022-11-15T06:09:05;33.65;;;14.07;;
69750;SDS011;57335;52.288;6.056;2022-11-15T06:11:31;34.65;;;13.98;;
69750;SDS011;57335;52.288;6.056;2022-11-15T06:13:58;37.47;;;14.75;;
69750;SDS011;57335;52.288;6.056;2022-11-15T06:16:24;36.17;;;14.40;;
69750;SDS011;57335;52.288;6.056;2022-11-15T06:18:51;33.67;;;13.73;;
69750;SDS011;57335;52.288;6.056;2022-11-15T06:21:17;39.63;;;14.40;;
69750;SDS011;57335;52.288;6.056;2022-11-15T06:23:43;35.95;;;14.13;;
69750;SDS011;57335;52.288;6.056;2022-11-15T06:26:10;34.45;;;14.77;;
69750;SDS011;57335;52.288;6.056;2022-11-15T06:28:36;37.15;;;15.02;;
69750;SDS011;57335;52.288;6.056;2022-11-15T06:31:03;39.28;;;15.30;;
69750;SDS011;57335;52.288;6.056;2022-11-15T06:33:30;36.75;;;15.27;;
69750;SDS011;57335;52.288;6.056;2022-11-15T06:36:02;39.22;;;15.63;;
69750;SDS011;57335;52.288;6.056;2022-11-15T06:38:29;36.97;;;15.23;;
69750;SDS011;57335;52.288;6.056;2022-11-15T06:41:01;39.38;;;15.82;;
69750;SDS011;57335;52.288;6.056;2022-11-15T06:43:28;42.95;;;15.63;;
69750;SDS011;57335;52.288;6.056;2022-11-15T06:45:58;41.30;;;15.30;;
69750;SDS011;57335;52.288;6.056;2022-11-15T06:48:26;40.50;;;15.48;;
69750;SDS011;57335;52.288;6.056;2022-11-15T06:50:57;37.83;;;15.05;;
69750;SDS011;57335;52.288;6.056;2022-11-15T06:53:24;39.10;;;16.23;;
69750;SDS011;57335;52.288;6.056;2022-11-15T06:55:51;42.28;;;16.13;;
69750;SDS011;57335;52.288;6.056;2022-11-15T06:58:21;40.70;;;15.38;;
69750;SDS011;57335;52.288;6.056;2022-11-15T07:00:47;42.13;;;15.60;;
69750;SDS011;57335;52.288;6.056;2022-11-15T07:03:13;41.40;;;15.70;;
69750;SDS011;57335;52.288;6.056;2022-11-15T07:05:40;36.72;;;15.48;;
69750;SDS011;57335;52.288;6.056;2022-11-15T07:08:06;42.13;;;16.58;;
69750;SDS011;57335;52.288;6.056;2022-11-15T07:10:33;38.75;;;15.38;;
69750;SDS011;57335;52.288;6.056;2022-11-15T07:12:59;39.75;;;15.30;;
69750;SDS011;57335;52.288;6.056;2022-11-15T07:15:25;44.95;;;16.77;;
69750;SDS011;57335;52.288;6.056;2022-11-15T07:17:52;45.42;;;16.85;;
69750;SDS011;57335;52.288;6.056;2022-11-15T07:20:18;41.25;;;16.33;;
69750;SDS011;57335;52.288;6.056;2022-11-15T07:22:45;44.67;;;15.75;;
69750;SDS011;57335;52.288;6.056;2022-11-15T07:25:11;42.90;;;15.77;;
69750;SDS011;57335;52.288;6.056;2022-11-15T07:27:38;41.47;;;15.88;;
69750;SDS011;57335;52.288;6.056;2022-11-15T07:30:05;43.92;;;17.02;;
69750;SDS011;57335;52.288;6.056;2022-11-15T07:32:31;39.05;;;16.13;;
69750;SDS011;57335;52.288;6.056;2022-11-15T07:34:58;37.88;;;15.55;;
69750;SDS011;57335;52.288;6.056;2022-11-15T07:37:24;40.13;;;15.82;;
69750;SDS011;57335;52.288;6.056;2022-11-15T07:39:50;39.10;;;16.23;;
69750;SDS011;57335;52.288;6.056;2022-11-15T07:42:17;39.53;;;15.48;;
69750;SDS011;57335;52.288;6.056;2022-11-15T07:44:43;38.85;;;15.93;;
69750;SDS011;57335;52.288;6.056;2022-11-15T07:47:09;40.80;;;15.57;;
69750;SDS011;57335;52.288;6.056;2022-11-15T07:49:36;40.25;;;15.10;;
69750;SDS011;57335;52.288;6.056;2022-11-15T07:52:02;35.63;;;14.18;;
69750;SDS011;57335;52.288;6.056;2022-11-15T07:54:28;36.17;;;14.43;;
69750;SDS011;57335;52.288;6.056;2022-11-15T07:56:55;39.60;;;14.90;;
69750;SDS011;57335;52.288;6.056;2022-11-15T07:59:21;36.55;;;14.77;;
69750;SDS011;57335;52.288;6.056;2022-11-15T08:01:48;40.50;;;15.70;;
69750;SDS011;57335;52.288;6.056;2022-11-15T08:04:17;36.20;;;15.25;;
69750;SDS011;57335;52.288;6.056;2022-11-15T08:06:43;42.70;;;16.05;;
69750;SDS011;57335;52.288;6.056;2022-11-15T08:09:11;37.50;;;14.95;;
69750;SDS011;57335;52.288;6.056;2022-11-15T08:11:37;39.75;;;15.63;;
69750;SDS011;57335;52.288;6.056;2022-11-15T08:14:03;35.08;;;15.20;;
69750;SDS011;57335;52.288;6.056;2022-11-15T08:16:30;38.88;;;14.98;;
69750;SDS011;57335;52.288;6.056;2022-11-15T08:18:56;40.00;;;15.45;;
69750;SDS011;57335;52.288;6.056;2022-11-15T08:21:22;40.08;;;15.80;;
69750;SDS011;57335;52.288;6.056;2022-11-15T08:23:49;40.05;;;15.88;;
69750;SDS011;57335;52.288;6.056;2022-11-15T08:26:15;39.67;;;14.88;;
69750;SDS011;57335;52.288;6.056;2022-11-15T08:28:43;35.55;;;14.40;;
69750;SDS011;57335;52.288;6.056;2022-11-15T08:31:13;37.80;;;15.05;;
69750;SDS011;57335;52.288;6.056;2022-11-15T08:33:44;36.70;;;14.35;;
69750;SDS011;57335;52.288;6.056;2022-11-15T08:36:14;40.03;;;14.48;;
69750;SDS011;57335;52.288;6.056;2022-11-15T08:38:42;38.80;;;14.85;;
69750;SDS011;57335;52.288;6.056;2022-11-15T08:41:09;34.45;;;13.35;;
69750;SDS011;57335;52.288;6.056;2022-11-15T08:43:42;34.78;;;13.80;;
69750;SDS011;57335;52.288;6.056;2022-11-15T08:46:12;32.35;;;13.25;;
69750;SDS011;57335;52.288;6.056;2022-11-15T08:48:39;33.35;;;13.15;;
69750;SDS011;57335;52.288;6.056;2022-11-15T08:51:06;29.02;;;12.48;;
69750;SDS011;57335;52.288;6.056;2022-11-15T08:53:33;25.98;;;11.35;;
69750;SDS011;57335;52.288;6.056;2022-11-15T08:55:59;29.92;;;12.27;;
69750;SDS011;57335;52.288;6.056;2022-11-15T08:58:26;28.48;;;11.65;;
69750;SDS011;57335;52.288;6.056;2022-11-15T09:00:52;27.88;;;10.98;;
69750;SDS011;57335;52.288;6.056;2022-11-15T09:03:18;23.83;;;11.25;;
69750;SDS011;57335;52.288;6.056;2022-11-15T09:05:45;26.27;;;11.18;;
69750;SDS011;57335;52.288;6.056;2022-11-15T09:08:11;24.33;;;10.75;;
69750;SDS011;57335;52.288;6.056;2022-11-15T09:10:57;26.48;;;10.63;;
69750;SDS011;57335;52.288;6.056;2022-11-15T09:13:24;26.63;;;10.10;;
69750;SDS011;57335;52.288;6.056;2022-11-15T09:15:50;22.90;;;10.43;;
69750;SDS011;57335;52.288;6.056;2022-11-15T09:18:17;25.55;;;11.27;;
69750;SDS011;57335;52.288;6.056;2022-11-15T09:20:43;22.77;;;10.38;;
69750;SDS011;57335;52.288;6.056;2022-11-15T09:23:09;24.92;;;10.18;;
69750;SDS011;57335;52.288;6.056;2022-11-15T09:25:36;23.10;;;10.00;;
69750;SDS011;57335;52.288;6.056;2022-11-15T09:28:05;24.75;;;9.77;;
69750;SDS011;57335;52.288;6.056;2022-11-15T09:30:32;26.77;;;9.98;;
69750;SDS011;57335;52.288;6.056;2022-11-15T09:32:59;21.77;;;9.02;;
69750;SDS011;57335;52.288;6.056;2022-11-15T09:35:32;22.13;;;9.73;;
69750;SDS011;57335;52.288;6.056;2022-11-15T09:37:58;22.42;;;9.52;;
69750;SDS011;57335;52.288;6.056;2022-11-15T09:40:25;22.00;;;9.00;;
69750;SDS011;57335;52.288;6.056;2022-11-15T09:42:55;21.85;;;9.50;;
69750;SDS011;57335;52.288;6.056;2022-11-15T09:45:33;19.02;;;9.38;;
69750;SDS011;57335;52.288;6.056;2022-11-15T09:51:00;21.45;;;8.77;;
69750;SDS011;57335;52.288;6.056;2022-11-15T09:53:39;20.50;;;8.48;;
69750;SDS011;57335;52.288;6.056;2022-11-15T09:56:37;19.00;;;8.05;;
69750;SDS011;57335;52.288;6.056;2022-11-15T09:59:28;18.13;;;8.48;;
69750;SDS011;57335;52.288;6.056;2022-11-15T10:05:14;17.88;;;8.00;;
69750;SDS011;57335;52.288;6.056;2022-11-15T10:07:52;17.17;;;8.45;;
69750;SDS011;57335;52.288;6.056;2022-11-15T10:10:44;18.92;;;7.97;;
69750;SDS011;57335;52.288;6.056;2022-11-15T10:13:24;15.80;;;7.85;;
69750;SDS011;57335;52.288;6.056;2022-11-15T10:21:13;15.75;;;6.90;;
69750;SDS011;57335;52.288;6.056;2022-11-15T10:23:44;13.38;;;6.30;;
69750;SDS011;57335;52.288;6.056;2022-11-15T10:26:11;15.65;;;6.68;;
69750;SDS011;57335;52.288;6.056;2022-11-15T10:28:41;17.05;;;6.20;;
69750;SDS011;57335;52.288;6.056;2022-11-15T10:31:20;16.05;;;6.97;;
69750;SDS011;57335;52.288;6.056;2022-11-15T10:33:52;17.55;;;6.38;;
69750;SDS011;57335;52.288;6.056;2022-11-15T10:36:35;13.85;;;6.45;;
69750;SDS011;57335;52.288;6.056;2022-11-15T10:39:02;14.27;;;5.60;;
69750;SDS011;57335;52.288;6.056;2022-11-15T10:46:34;14.75;;;6.95;;
69750;SDS011;57335;52.288;6.056;2022-11-15T10:49:26;14.20;;;6.43;;
69750;SDS011;57335;52.288;6.056;2022-11-15T10:54:48;14.15;;;5.90;;
69750;SDS011;57335;52.288;6.056;2022-11-15T11:00:02;12.30;;;6.00;;
69750;SDS011;57335;52.288;6.056;2022-11-15T11:02:37;12.88;;;5.63;;
69750;SDS011;57335;52.288;6.056;2022-11-15T11:05:24;13.45;;;6.05;;
69750;SDS011;57335;52.288;6.056;2022-11-15T11:08:02;12.75;;;5.55;;
69750;SDS011;57335;52.288;6.056;2022-11-15T11:11:06;13.20;;;6.00;;
69750;SDS011;57335;52.288;6.056;2022-11-15T11:13:37;12.18;;;5.45;;
69750;SDS011;57335;52.288;6.056;2022-11-15T11:21:14;10.20;;;4.40;;
69750;SDS011;57335;52.288;6.056;2022-11-15T11:33:20;8.93;;;3.80;;
69750;SDS011;57335;52.288;6.056;2022-11-15T11:38:09;8.77;;;3.80;;
69750;SDS011;57335;52.288;6.056;2022-11-15T11:40:56;9.10;;;3.65;;
69750;SDS011;57335;52.288;6.056;2022-11-15T11:46:38;9.32;;;3.55;;
69750;SDS011;57335;52.288;6.056;2022-11-15T11:49:25;7.80;;;3.10;;
69750;SDS011;57335;52.288;6.056;2022-11-15T11:52:04;7.25;;;2.97;;
69750;SDS011;57335;52.288;6.056;2022-11-15T12:00:41;5.93;;;2.45;;
69750;SDS011;57335;52.288;6.056;2022-11-15T12:03:59;7.35;;;2.60;;
69750;SDS011;57335;52.288;6.056;2022-11-15T12:06:19;9.73;;;2.70;;
69750;SDS011;57335;52.288;6.056;2022-11-15T12:08:52;6.95;;;2.33;;
69750;SDS011;57335;52.288;6.056;2022-11-15T12:11:37;5.68;;;2.10;;
69750;SDS011;57335;52.288;6.056;2022-11-15T12:15:16;5.57;;;2.28;;
69750;SDS011;57335;52.288;6.056;2022-11-15T12:17:12;6.05;;;2.05;;
69750;SDS011;57335;52.288;6.056;2022-11-15T12:19:41;5.72;;;2.10;;
69750;SDS011;57335;52.288;6.056;2022-11-15T12:27:38;5.75;;;2.03;;
69750;SDS011;57335;52.288;6.056;2022-11-15T12:30:17;5.13;;;2.00;;
69750;SDS011;57335;52.288;6.056;2022-11-15T12:32:54;5.75;;;2.00;;
69750;SDS011;57335;52.288;6.056;2022-11-15T12:35:25;5.55;;;1.92;;
69750;SDS011;57335;52.288;6.056;2022-11-15T12:37:55;5.72;;;2.22;;
69750;SDS011;57335;52.288;6.056;2022-11-15T12:40:35;6.32;;;1.83;;
69750;SDS011;57335;52.288;6.056;2022-11-15T12:43:50;6.68;;;2.30;;
69750;SDS011;57335;52.288;6.056;2022-11-15T12:46:10;6.85;;;2.22;;
69750;SDS011;57335;52.288;6.056;2022-11-15T12:51:05;6.85;;;1.80;;
69750;SDS011;57335;52.288;6.056;2022-11-15T12:53:33;7.15;;;1.98;;
69750;SDS011;57335;52.288;6.056;2022-11-15T12:58:43;4.13;;;1.40;;
69750;SDS011;57335;52.288;6.056;2022-11-15T13:06:48;7.40;;;1.60;;
69750;SDS011;57335;52.288;6.056;2022-11-15T13:09:50;5.07;;;1.20;;
69750;SDS011;57335;52.288;6.056;2022-11-15T13:14:54;5.22;;;1.10;;
69750;SDS011;57335;52.288;6.056;2022-11-15T13:22:41;4.22;;;1.30;;
69750;SDS011;57335;52.288;6.056;2022-11-15T13:27:45;4.28;;;1.20;;
69750;SDS011;57335;52.288;6.056;2022-11-15T13:30:16;2.85;;;1.20;;
69750;SDS011;57335;52.288;6.056;2022-11-15T13:32:46;4.03;;;1.30;;
69750;SDS011;57335;52.288;6.056;2022-11-15T13:35:20;3.40;;;1.25;;
69750;SDS011;57335;52.288;6.056;2022-11-15T13:37:58;3.30;;;1.05;;
69750;SDS011;57335;52.288;6.056;2022-11-15T13:40:34;4.07;;;1.20;;
69750;SDS011;57335;52.288;6.056;2022-11-15T13:48:56;5.00;;;1.17;;
69750;SDS011;57335;52.288;6.056;2022-11-15T13:51:37;3.92;;;1.30;;
69750;SDS011;57335;52.288;6.056;2022-11-15T13:54:20;3.33;;;1.20;;
69750;SDS011;57335;52.288;6.056;2022-11-15T13:56:55;5.80;;;1.40;;
69750;SDS011;57335;52.288;6.056;2022-11-15T14:01:53;4.43;;;1.40;;
69750;SDS011;57335;52.288;6.056;2022-11-15T14:04:22;3.95;;;1.20;;
69750;SDS011;57335;52.288;6.056;2022-11-15T14:06:52;4.55;;;1.40;;
69750;SDS011;57335;52.288;6.056;2022-11-15T14:09:34;3.60;;;1.10;;
69750;SDS011;57335;52.288;6.056;2022-11-15T14:12:19;3.05;;;1.10;;
69750;SDS011;57335;52.288;6.056;2022-11-15T14:14:49;3.95;;;1.33;;
69750;SDS011;57335;52.288;6.056;2022-11-15T14:17:19;4.57;;;1.40;;
69750;SDS011;57335;52.288;6.056;2022-11-15T14:19:47;4.32;;;1.42;;
69750;SDS011;57335;52.288;6.056;2022-11-15T14:22:14;5.28;;;1.50;;
69750;SDS011;57335;52.288;6.056;2022-11-15T14:24:44;6.60;;;1.50;;
69750;SDS011;57335;52.288;6.056;2022-11-15T14:27:23;5.35;;;1.58;;
69750;SDS011;57335;52.288;6.056;2022-11-15T14:29:52;5.32;;;1.50;;
69750;SDS011;57335;52.288;6.056;2022-11-15T14:32:20;3.40;;;1.48;;
69750;SDS011;57335;52.288;6.056;2022-11-15T14:34:49;5.40;;;1.60;;
69750;SDS011;57335;52.288;6.056;2022-11-15T14:37:24;4.00;;;1.42;;
69750;SDS011;57335;52.288;6.056;2022-11-15T14:39:55;5.65;;;1.70;;
69750;SDS011;57335;52.288;6.056;2022-11-15T14:42:22;4.85;;;1.48;;
69750;SDS011;57335;52.288;6.056;2022-11-15T14:44:49;6.13;;;1.70;;
69750;SDS011;57335;52.288;6.056;2022-11-15T14:47:15;4.25;;;1.42;;
69750;SDS011;57335;52.288;6.056;2022-11-15T14:49:42;4.88;;;1.40;;
69750;SDS011;57335;52.288;6.056;2022-11-15T14:52:23;5.20;;;1.50;;
69750;SDS011;57335;52.288;6.056;2022-11-15T14:54:57;6.20;;;1.90;;
69750;SDS011;57335;52.288;6.056;2022-11-15T14:57:24;6.82;;;1.77;;
69750;SDS011;57335;52.288;6.056;2022-11-15T14:59:50;4.90;;;1.67;;
69750;SDS011;57335;52.288;6.056;2022-11-15T15:02:23;7.43;;;2.00;;
69750;SDS011;57335;52.288;6.056;2022-11-15T15:04:52;5.45;;;1.40;;
69750;SDS011;57335;52.288;6.056;2022-11-15T15:07:19;5.88;;;1.60;;
69750;SDS011;57335;52.288;6.056;2022-11-15T15:09:46;6.00;;;1.50;;
69750;SDS011;57335;52.288;6.056;2022-11-15T15:12:21;6.63;;;1.52;;
69750;SDS011;57335;52.288;6.056;2022-11-15T15:14:48;5.97;;;1.58;;
69750;SDS011;57335;52.288;6.056;2022-11-15T15:17:16;3.65;;;1.33;;
69750;SDS011;57335;52.288;6.056;2022-11-15T15:19:43;5.55;;;1.73;;
69750;SDS011;57335;52.288;6.056;2022-11-15T15:22:16;5.65;;;1.50;;
69750;SDS011;57335;52.288;6.056;2022-11-15T15:24:44;4.65;;;1.45;;
69750;SDS011;57335;52.288;6.056;2022-11-15T15:27:11;6.90;;;1.48;;
69750;SDS011;57335;52.288;6.056;2022-11-15T15:29:38;6.93;;;1.63;;
69750;SDS011;57335;52.288;6.056;2022-11-15T15:32:05;5.32;;;1.60;;
69750;SDS011;57335;52.288;6.056;2022-11-15T15:34:31;3.78;;;1.60;;
69750;SDS011;57335;52.288;6.056;2022-11-15T15:42:15;5.63;;;1.40;;
69750;SDS011;57335;52.288;6.056;2022-11-15T15:44:41;4.80;;;1.40;;
69750;SDS011;57335;52.288;6.056;2022-11-15T15:47:10;4.72;;;1.33;;
69750;SDS011;57335;52.288;6.056;2022-11-15T15:49:47;3.78;;;1.20;;
69750;SDS011;57335;52.288;6.056;2022-11-15T15:52:15;6.35;;;1.45;;
69750;SDS011;57335;52.288;6.056;2022-11-15T15:54:41;7.50;;;1.42;;
69750;SDS011;57335;52.288;6.056;2022-11-15T15:57:08;5.68;;;1.60;;
69750;SDS011;57335;52.288;6.056;2022-11-15T15:59:38;4.60;;;1.55;;
69750;SDS011;57335;52.288;6.056;2022-11-15T16:02:04;4.85;;;1.33;;
69750;SDS011;57335;52.288;6.056;2022-11-15T16:04:31;5.75;;;1.60;;
69750;SDS011;57335;52.288;6.056;2022-11-15T16:07:00;5.25;;;1.40;;
69750;SDS011;57335;52.288;6.056;2022-11-15T16:09:27;7.13;;;1.55;;
69750;SDS011;57335;52.288;6.056;2022-11-15T16:11:56;5.55;;;1.27;;
69750;SDS011;57335;52.288;6.056;2022-11-15T16:14:23;7.47;;;1.40;;
69750;SDS011;57335;52.288;6.056;2022-11-15T16:16:49;4.50;;;1.63;;
69750;SDS011;57335;52.288;6.056;2022-11-15T16:19:16;4.93;;;1.30;;
69750;SDS011;57335;52.288;6.056;2022-11-15T16:21:42;3.72;;;1.20;;
69750;SDS011;57335;52.288;6.056;2022-11-15T16:24:08;4.32;;;1.38;;
69750;SDS011;57335;52.288;6.056;2022-11-15T16:26:35;3.75;;;1.20;;
69750;SDS011;57335;52.288;6.056;2022-11-15T16:29:02;6.97;;;1.42;;
69750;SDS011;57335;52.288;6.056;2022-11-15T16:31:29;3.92;;;1.20;;
69750;SDS011;57335;52.288;6.056;2022-11-15T16:33:55;5.10;;;1.30;;
69750;SDS011;57335;52.288;6.056;2022-11-15T16:36:22;2.72;;;1.10;;
69750;SDS011;57335;52.288;6.056;2022-11-15T16:38:55;4.85;;;1.23;;
69750;SDS011;57335;52.288;6.056;2022-11-15T16:41:22;5.93;;;1.35;;
69750;SDS011;57335;52.288;6.056;2022-11-15T16:43:48;5.43;;;1.42;;